createdAt,value
2018-02-20T00:00:43.197Z,-2.47
2018-02-20T00:01:53.189Z,-2.45
2018-02-20T00:03:02.909Z,-2.42
2018-02-20T00:04:12.907Z,-2.39
2018-02-20T00:05:22.637Z,-2.36
2018-02-20T00:06:32.632Z,-2.39
2018-02-20T00:07:42.628Z,-2.4
2018-02-20T00:08:52.618Z,-2.44
2018-02-20T00:10:02.345Z,-2.33
2018-02-20T00:11:12.334Z,-2.39
2018-02-20T00:12:22.059Z,-2.47
2018-02-20T00:13:31.782Z,-2.39
2018-02-20T00:14:41.821Z,-2.48
2018-02-20T00:15:51.810Z,-2.33
2018-02-20T00:17:01.805Z,-2.39
2018-02-20T00:18:11.258Z,-2.47
2018-02-20T00:19:21.259Z,-2.33
2018-02-20T00:20:30.985Z,-2.45
2018-02-20T00:21:40.979Z,-2.34
2018-02-20T00:22:50.703Z,-2.32
2018-02-20T00:24:00.425Z,-2.26
2018-02-20T00:25:10.152Z,-2.34
2018-02-20T00:26:20.141Z,-2.32
2018-02-20T00:27:30.132Z,-2.36
2018-02-20T00:28:39.857Z,-2.36
2018-02-20T00:29:49.585Z,-2.33
2018-02-20T00:30:59.571Z,-2.36
2018-02-20T00:32:09.564Z,-2.44
2018-02-20T00:33:19.027Z,-2.36
2018-02-20T00:34:28.756Z,-2.29
2018-02-20T00:35:38.757Z,-2.42
2018-02-20T00:36:48.749Z,-2.39
2018-02-20T00:37:58.746Z,-2.34
2018-02-20T00:39:08.734Z,-2.34
2018-02-20T00:40:18.729Z,-2.28
2018-02-20T00:41:28.453Z,-2.39
2018-02-20T00:42:38.440Z,-2.36
2018-02-20T00:43:48.166Z,-2.36
2018-02-20T00:44:57.625Z,-2.33
2018-02-20T00:46:07.082Z,-2.34
2018-02-20T00:47:16.812Z,-2.36
2018-02-20T00:48:26.535Z,-2.34
2018-02-20T00:49:36.527Z,-2.36
2018-02-20T00:50:46.260Z,-2.33
2018-02-20T00:51:55.981Z,-2.32
2018-02-20T00:53:05.174Z,-2.36
2018-02-20T00:54:14.905Z,-2.34
2018-02-20T00:55:24.915Z,-2.36
2018-02-20T00:56:34.912Z,-2.48
2018-02-20T00:57:44.908Z,-2.4
2018-02-20T00:58:54.898Z,-2.5
2018-02-20T01:00:04.619Z,-2.32
2018-02-20T01:01:14.344Z,-2.4
2018-02-20T01:02:24.337Z,-2.47
2018-02-20T01:03:34.064Z,-2.48
2018-02-20T01:04:44.057Z,-2.44
2018-02-20T01:05:54.052Z,-2.39
2018-02-20T01:07:04.106Z,-2.45
2018-02-20T01:08:13.568Z,-2.39
2018-02-20T01:09:23.299Z,-2.47
2018-02-20T01:10:33.026Z,-2.36
2018-02-20T01:11:43.027Z,-2.45
2018-02-20T01:12:53.017Z,-2.44
2018-02-20T01:14:02.472Z,-2.32
2018-02-20T01:15:12.477Z,-2.36
2018-02-20T01:16:22.480Z,-2.34
2018-02-20T01:17:32.474Z,-2.33
2018-02-20T01:18:42.472Z,-2.36
2018-02-20T01:19:52.212Z,-2.39
2018-02-20T01:21:01.936Z,-2.37
2018-02-20T01:22:11.669Z,-2.36
2018-02-20T01:23:21.665Z,-2.33
2018-02-20T01:24:31.387Z,-2.42
2018-02-20T01:25:41.378Z,-2.45
2018-02-20T01:26:51.369Z,-2.48
2018-02-20T01:28:01.359Z,-2.45
2018-02-20T01:29:11.350Z,-2.37
2018-02-20T01:30:21.078Z,-2.39
2018-02-20T01:31:31.067Z,-2.48
2018-02-20T01:32:41.066Z,-2.4
2018-02-20T01:33:50.787Z,-2.44
2018-02-20T01:35:00.781Z,-2.4
2018-02-20T01:36:10.511Z,-2.48
2018-02-20T01:37:20.505Z,-2.42
2018-02-20T01:38:30.232Z,-2.4
2018-02-20T01:39:40.232Z,-2.39
2018-02-20T01:40:50.219Z,-2.4
2018-02-20T01:42:00.204Z,-2.42
2018-02-20T01:43:09.658Z,-2.42
2018-02-20T01:44:19.659Z,-2.44
2018-02-20T01:45:29.131Z,-2.39
2018-02-20T01:46:39.116Z,-2.44
2018-02-20T01:47:48.940Z,-2.5
2018-02-20T01:48:58.934Z,-2.47
2018-02-20T01:50:08.664Z,-2.39
2018-02-20T01:51:18.662Z,-2.4
2018-02-20T01:52:28.652Z,-2.4
2018-02-20T01:53:38.702Z,-2.48
2018-02-20T01:54:48.431Z,-2.39
2018-02-20T01:55:58.159Z,-2.39
2018-02-20T01:57:07.613Z,-2.4
2018-02-20T01:58:17.606Z,-2.37
2018-02-20T01:59:27.334Z,-2.45
2018-02-20T02:00:37.059Z,-2.29
2018-02-20T02:01:46.780Z,-2.34
2018-02-20T02:02:56.506Z,-2.34
2018-02-20T02:04:06.500Z,-2.33
2018-02-20T02:05:16.224Z,-2.45
2018-02-20T02:06:26.224Z,-2.39
2018-02-20T02:07:36.228Z,-2.37
2018-02-20T02:08:45.950Z,-2.36
2018-02-20T02:09:55.673Z,-2.47
2018-02-20T02:11:05.405Z,-2.37
2018-02-20T02:12:15.393Z,-2.45
2018-02-20T02:13:25.118Z,-2.4
2018-02-20T02:14:35.109Z,-2.42
2018-02-20T02:15:44.835Z,-2.42
2018-02-20T02:16:54.830Z,-2.44
2018-02-20T02:18:04.560Z,-2.39
2018-02-20T02:19:14.022Z,-2.34
2018-02-20T02:20:24.017Z,-2.39
2018-02-20T02:21:33.474Z,-2.45
2018-02-20T02:22:43.460Z,-2.48
2018-02-20T02:23:53.448Z,-2.45
2018-02-20T02:25:03.441Z,-2.52
2018-02-20T02:26:13.166Z,-2.57
2018-02-20T02:27:23.164Z,-2.45
2018-02-20T02:28:33.160Z,-2.57
2018-02-20T02:29:42.886Z,-2.48
2018-02-20T02:30:52.881Z,-2.57
2018-02-20T02:32:02.619Z,-2.58
2018-02-20T02:33:12.644Z,-2.61
2018-02-20T02:34:22.684Z,-2.55
2018-02-20T02:35:32.744Z,-2.58
2018-02-20T02:36:42.750Z,-2.57
2018-02-20T02:37:52.748Z,-2.62
2018-02-20T02:39:02.752Z,-2.66
2018-02-20T02:40:12.755Z,-2.57
2018-02-20T02:41:22.767Z,-2.62
2018-02-20T02:42:32.239Z,-2.65
2018-02-20T02:43:42.241Z,-2.63
2018-02-20T02:44:52.245Z,-2.63
2018-02-20T02:46:01.972Z,-2.65
2018-02-20T02:47:11.967Z,-2.68
2018-02-20T02:48:21.968Z,-2.65
2018-02-20T02:49:31.713Z,-2.63
2018-02-20T02:50:41.453Z,-2.58
2018-02-20T02:51:51.454Z,-2.54
2018-02-20T02:53:01.466Z,-2.58
2018-02-20T02:54:11.203Z,-2.61
2018-02-20T02:55:21.214Z,-2.63
2018-02-20T02:56:31.210Z,-2.68
2018-02-20T02:57:40.933Z,-2.68
2018-02-20T02:58:50.393Z,-2.65
2018-02-20T03:00:00.397Z,-2.75
2018-02-20T03:01:10.134Z,-2.65
2018-02-20T03:02:20.171Z,-2.66
2018-02-20T03:03:29.903Z,-2.66
2018-02-20T03:04:39.906Z,-2.66
2018-02-20T03:05:49.908Z,-2.69
2018-02-20T03:06:59.910Z,-2.7
2018-02-20T03:08:09.902Z,-2.81
2018-02-20T03:09:19.408Z,-2.84
2018-02-20T03:10:29.132Z,-2.8
2018-02-20T03:11:39.119Z,-2.86
2018-02-20T03:12:48.839Z,-2.9
2018-02-20T03:13:58.828Z,-2.99
2018-02-20T03:15:08.922Z,-2.94
2018-02-20T03:16:18.915Z,-2.99
2018-02-20T03:17:28.908Z,-2.93
2018-02-20T03:18:38.630Z,-2.96
2018-02-20T03:19:48.672Z,-2.99
2018-02-20T03:20:58.672Z,-2.98
2018-02-20T03:22:08.663Z,-2.96
2018-02-20T03:23:18.658Z,-2.98
2018-02-20T03:24:28.649Z,-2.99
2018-02-20T03:25:38.642Z,-2.98
2018-02-20T03:26:48.637Z,-3.04
2018-02-20T03:27:58.629Z,-2.98
2018-02-20T03:29:08.353Z,-3.01
2018-02-20T03:30:18.130Z,-2.99
2018-02-20T03:31:28.132Z,-3.08
2018-02-20T03:32:38.128Z,-3.11
2018-02-20T03:33:48.177Z,-3.01
2018-02-20T03:34:58.170Z,-3.09
2018-02-20T03:36:07.626Z,-3.09
2018-02-20T03:37:17.611Z,-3.2
2018-02-20T03:38:27.611Z,-3.11
2018-02-20T03:39:37.334Z,-3.14
2018-02-20T03:40:47.058Z,-3.17
2018-02-20T03:41:57.055Z,-3.05
2018-02-20T03:43:07.048Z,-3.26
2018-02-20T03:44:17.033Z,-3.17
2018-02-20T03:45:26.760Z,-3.27
2018-02-20T03:46:36.482Z,-3.27
2018-02-20T03:47:46.476Z,-3.26
2018-02-20T03:48:56.210Z,-3.27
2018-02-20T03:50:05.669Z,-3.22
2018-02-20T03:51:15.667Z,-3.23
2018-02-20T03:52:25.400Z,-3.23
2018-02-20T03:53:35.390Z,-3.22
2018-02-20T03:54:45.111Z,-3.26
2018-02-20T03:55:55.100Z,-3.23
2018-02-20T03:57:04.829Z,-3.27
2018-02-20T03:58:14.827Z,-3.33
2018-02-20T03:59:24.847Z,-3.38
2018-02-20T04:00:34.592Z,-3.38
2018-02-20T04:04:16.892Z,-3.48
2018-02-20T04:05:26.889Z,-3.43
2018-02-20T04:06:36.873Z,-3.58
2018-02-20T04:07:46.602Z,-3.55
2018-02-20T04:08:56.592Z,-3.58
2018-02-20T04:10:06.587Z,-3.61
2018-02-20T04:11:16.599Z,-3.62
2018-02-20T04:12:26.587Z,-3.65
2018-02-20T04:13:36.312Z,-3.65
2018-02-20T04:14:46.302Z,-3.74
2018-02-20T04:15:56.293Z,-3.69
2018-02-20T04:17:06.281Z,-3.8
2018-02-20T04:18:16.272Z,-3.75
2018-02-20T04:19:26.262Z,-3.71
2018-02-20T04:20:36.248Z,-3.77
2018-02-20T04:21:45.973Z,-3.66
2018-02-20T04:22:55.694Z,-3.74
2018-02-20T04:24:05.691Z,-3.77
2018-02-20T04:25:15.689Z,-3.75
2018-02-20T04:26:25.672Z,-3.69
2018-02-20T04:27:35.393Z,-3.64
2018-02-20T04:28:45.375Z,-3.62
2018-02-20T04:29:55.364Z,-3.61
2018-02-20T04:31:05.359Z,-3.56
2018-02-20T04:32:15.352Z,-3.46
2018-02-20T04:33:25.341Z,-3.51
2018-02-20T04:34:34.817Z,-3.47
2018-02-20T04:35:44.816Z,-3.47
2018-02-20T04:36:54.810Z,-3.5
2018-02-20T04:38:04.798Z,-3.46
2018-02-20T04:39:14.796Z,-3.56
2018-02-20T04:40:24.786Z,-3.47
2018-02-20T04:41:34.511Z,-3.37
2018-02-20T04:42:44.503Z,-3.38
2018-02-20T04:43:54.492Z,-3.37
2018-02-20T04:45:04.222Z,-3.3
2018-02-20T04:46:14.214Z,-3.23
2018-02-20T04:47:24.207Z,-3.23
2018-02-20T04:48:34.197Z,-3.25
2018-02-20T04:49:44.190Z,-3.26
2018-02-20T04:50:54.178Z,-3.27
2018-02-20T04:52:04.167Z,-3.25
2018-02-20T04:53:13.894Z,-3.27
2018-02-20T04:54:23.941Z,-3.2
2018-02-20T04:55:33.943Z,-3.3
2018-02-20T04:56:43.985Z,-3.32
2018-02-20T04:57:53.971Z,-3.38
2018-02-20T04:59:03.694Z,-3.38
2018-02-20T05:00:13.697Z,-3.41
2018-02-20T05:01:23.695Z,-3.4
2018-02-20T05:02:33.684Z,-3.43
2018-02-20T05:03:43.681Z,-3.38
2018-02-20T05:04:53.670Z,-3.36
2018-02-20T05:06:03.659Z,-3.4
2018-02-20T05:07:13.652Z,-3.4
2018-02-20T05:08:23.111Z,-3.4
2018-02-20T05:09:33.102Z,-3.4
2018-02-20T05:10:43.087Z,-3.4
2018-02-20T05:11:53.081Z,-3.4
2018-02-20T05:13:03.082Z,-3.41
2018-02-20T05:14:13.074Z,-3.37
2018-02-20T05:15:23.074Z,-3.38
2018-02-20T05:16:33.064Z,-3.46
2018-02-20T05:17:43.118Z,-3.4
2018-02-20T05:18:53.113Z,-3.4
2018-02-20T05:20:02.886Z,-3.46
2018-02-20T05:21:12.880Z,-3.41
2018-02-20T05:22:22.599Z,-3.47
2018-02-20T05:23:32.325Z,-3.4
2018-02-20T05:24:42.314Z,-3.4
2018-02-20T05:25:52.305Z,-3.47
2018-02-20T05:27:02.294Z,-3.44
2018-02-20T05:28:12.291Z,-3.33
2018-02-20T05:29:22.277Z,-3.47
2018-02-20T05:30:32.268Z,-3.44
2018-02-20T05:31:42.259Z,-3.47
2018-02-20T05:32:52.267Z,-3.4
2018-02-20T05:34:02.252Z,-3.4
2018-02-20T05:35:11.977Z,-3.37
2018-02-20T05:36:21.431Z,-3.44
2018-02-20T05:37:31.037Z,-3.4
2018-02-20T05:38:40.762Z,-3.4
2018-02-20T05:39:50.478Z,-3.36
2018-02-20T05:41:00.464Z,-3.38
2018-02-20T05:42:10.448Z,-3.4
2018-02-20T05:43:20.441Z,-3.38
2018-02-20T05:44:30.436Z,-3.38
2018-02-20T05:45:40.429Z,-3.4
2018-02-20T05:46:50.419Z,-3.4
2018-02-20T05:48:00.410Z,-3.4
2018-02-20T05:49:10.160Z,-3.4
2018-02-20T05:50:19.878Z,-3.37
2018-02-20T05:51:29.655Z,-3.4
2018-02-20T05:52:39.752Z,-3.43
2018-02-20T05:53:49.208Z,-3.4
2018-02-20T05:54:59.203Z,-3.4
2018-02-20T05:56:09.196Z,-3.46
2018-02-20T05:57:18.960Z,-3.47
2018-02-20T05:58:28.694Z,-3.5
2018-02-20T05:59:38.420Z,-3.48
2018-02-20T06:00:48.416Z,-3.58
2018-02-20T06:01:58.408Z,-3.55
2018-02-20T06:03:08.146Z,-3.62
2018-02-20T06:04:18.136Z,-3.58
2018-02-20T06:05:27.328Z,-3.55
2018-02-20T06:06:37.319Z,-3.58
2018-02-20T06:07:47.318Z,-3.56
2018-02-20T06:08:57.308Z,-3.58
2018-02-20T06:10:07.301Z,-3.51
2018-02-20T06:11:16.757Z,-3.43
2018-02-20T06:12:26.748Z,-3.51
2018-02-20T06:13:36.739Z,-3.59
2018-02-20T06:14:46.734Z,-3.47
2018-02-20T06:15:56.464Z,-3.48
2018-02-20T06:17:06.471Z,-3.4
2018-02-20T06:18:16.457Z,-3.47
2018-02-20T06:19:26.186Z,-3.38
2018-02-20T06:20:36.181Z,-3.4
2018-02-20T06:21:45.909Z,-3.29
2018-02-20T06:22:55.629Z,-3.27
2018-02-20T06:24:05.135Z,-3.19
2018-02-20T06:25:15.128Z,-3.09
2018-02-20T06:26:24.878Z,-3.08
2018-02-20T06:27:34.365Z,-3.11
2018-02-20T06:28:44.349Z,-3.15
2018-02-20T06:29:54.341Z,-3.26
2018-02-20T06:31:04.070Z,-3.2
2018-02-20T06:32:13.812Z,-3.17
2018-02-20T06:33:23.539Z,-3.2
2018-02-20T06:34:33.539Z,-3.2
2018-02-20T06:35:43.536Z,-3.22
2018-02-20T06:36:53.533Z,-3.19
2018-02-20T06:38:03.528Z,-3.19
2018-02-20T06:39:13.522Z,-3.17
2018-02-20T06:40:22.978Z,-3.27
2018-02-20T06:41:32.705Z,-3.17
2018-02-20T06:42:42.699Z,-3.27
2018-02-20T06:43:52.707Z,-3.26
2018-02-20T06:45:02.694Z,-3.23
2018-02-20T06:46:11.883Z,-3.23
2018-02-20T06:47:21.446Z,-3.27
2018-02-20T06:48:31.164Z,-3.26
2018-02-20T06:49:40.890Z,-3.41
2018-02-20T06:50:50.639Z,-3.32
2018-02-20T06:52:00.630Z,-3.38
2018-02-20T06:53:10.353Z,-3.4
2018-02-20T06:54:20.348Z,-3.4
2018-02-20T06:55:30.086Z,-3.41
2018-02-20T06:56:39.815Z,-3.47
2018-02-20T06:57:49.815Z,-3.46
2018-02-20T06:58:59.810Z,-3.53
2018-02-20T07:00:09.539Z,-3.61
2018-02-20T07:01:19.268Z,-3.61
2018-02-20T07:02:29.265Z,-3.48
2018-02-20T07:03:38.726Z,-3.58
2018-02-20T07:04:48.718Z,-3.55
2018-02-20T07:05:58.713Z,-3.58
2018-02-20T07:07:08.440Z,-3.59
2018-02-20T07:08:18.436Z,-3.55
2018-02-20T07:09:28.425Z,-3.62
2018-02-20T07:10:38.155Z,-3.69
2018-02-20T07:11:47.880Z,-3.66
2018-02-20T07:12:57.877Z,-3.65
2018-02-20T07:14:07.874Z,-3.66
2018-02-20T07:15:17.616Z,-3.64
2018-02-20T07:16:27.354Z,-3.66
2018-02-20T07:17:37.437Z,-3.59
2018-02-20T07:18:47.425Z,-3.64
2018-02-20T07:19:57.154Z,-3.53
2018-02-20T07:21:07.143Z,-3.47
2018-02-20T07:22:17.133Z,-3.48
2018-02-20T07:23:27.166Z,-3.47
2018-02-20T07:24:37.171Z,-3.37
2018-02-20T07:25:47.181Z,-3.38
2018-02-20T07:26:56.644Z,-3.43
2018-02-20T07:28:06.649Z,-3.4
2018-02-20T07:29:16.637Z,-3.3
2018-02-20T07:30:26.650Z,-3.32
2018-02-20T07:31:36.723Z,-3.27
2018-02-20T07:32:46.767Z,-3.23
2018-02-20T07:33:56.788Z,-3.22
2018-02-20T07:35:06.786Z,-3.22
2018-02-20T07:36:16.785Z,-3.25
2018-02-20T07:37:26.506Z,-3.22
2018-02-20T07:38:36.495Z,-3.23
2018-02-20T07:39:45.952Z,-3.14
2018-02-20T07:40:55.950Z,-3.23
2018-02-20T07:42:05.943Z,-3.27
2018-02-20T07:43:15.402Z,-3.19
2018-02-20T07:44:25.401Z,-3.2
2018-02-20T07:45:35.519Z,-3.41
2018-02-20T07:46:45.243Z,-3.43
2018-02-20T07:47:54.701Z,-3.37
2018-02-20T07:49:04.733Z,-3.43
2018-02-20T07:50:14.615Z,-3.47
2018-02-20T07:51:24.603Z,-3.5
2018-02-20T07:52:34.595Z,-3.51
2018-02-20T07:53:44.590Z,-3.51
2018-02-20T07:54:54.322Z,-3.58
2018-02-20T07:56:03.778Z,-3.53
2018-02-20T07:57:13.285Z,-3.51
2018-02-20T07:58:23.068Z,-3.62
2018-02-20T07:59:32.810Z,-3.46
2018-02-20T08:00:42.811Z,-3.53
2018-02-20T08:01:52.801Z,-3.46
2018-02-20T08:03:02.574Z,-3.48
2018-02-20T08:04:12.317Z,-3.47
2018-02-20T08:05:22.308Z,-3.44
2018-02-20T08:06:32.089Z,-3.47
2018-02-20T08:07:41.808Z,-3.47
2018-02-20T08:08:51.804Z,-3.43
2018-02-20T08:10:01.795Z,-3.37
2018-02-20T08:11:11.790Z,-3.36
2018-02-20T08:12:21.789Z,-3.3
2018-02-20T08:13:31.786Z,-3.25
2018-02-20T08:14:41.612Z,-3.3
2018-02-20T08:15:51.071Z,-3.27
2018-02-20T08:17:00.799Z,-3.32
2018-02-20T08:18:10.526Z,-3.29
2018-02-20T08:19:20.519Z,-3.3
2018-02-20T08:20:30.253Z,-3.27
2018-02-20T08:21:39.976Z,-3.19
2018-02-20T08:22:49.979Z,-3.2
2018-02-20T08:23:59.709Z,-3.2
2018-02-20T08:25:09.765Z,-3.09
2018-02-20T08:26:19.497Z,-3.17
2018-02-20T08:27:29.488Z,-3.05
2018-02-20T08:28:39.213Z,-3.05
2018-02-20T08:29:49.234Z,-3.05
2018-02-20T08:30:59.229Z,-3.05
2018-02-20T08:32:08.952Z,-3.01
2018-02-20T08:33:18.681Z,-3.05
2018-02-20T08:34:28.681Z,-3.04
2018-02-20T08:35:38.672Z,-3.02
2018-02-20T08:36:48.664Z,-2.96
2018-02-20T08:37:58.388Z,-3.11
2018-02-20T08:39:08.384Z,-2.94
2018-02-20T08:40:18.112Z,-3.01
2018-02-20T08:41:27.846Z,-2.99
2018-02-20T08:42:37.844Z,-3.01
2018-02-20T08:43:47.676Z,-2.94
2018-02-20T08:44:57.669Z,-2.87
2018-02-20T08:46:07.714Z,-2.89
2018-02-20T08:47:17.441Z,-2.84
2018-02-20T08:48:27.432Z,-2.87
2018-02-20T08:49:37.155Z,-2.69
2018-02-20T08:50:47.151Z,-2.65
2018-02-20T08:51:57.147Z,-2.66
2018-02-20T08:53:06.871Z,-2.68
2018-02-20T08:54:16.864Z,-2.58
2018-02-20T08:55:26.863Z,-2.57
2018-02-20T08:56:36.880Z,-2.58
2018-02-20T08:57:46.883Z,-2.61
2018-02-20T08:58:56.872Z,-2.54
2018-02-20T09:00:06.621Z,-2.5
2018-02-20T09:01:16.653Z,-2.51
2018-02-20T09:02:26.646Z,-2.37
2018-02-20T09:03:36.368Z,-2.39
2018-02-20T09:04:46.146Z,-2.33
2018-02-20T09:05:55.876Z,-2.34
2018-02-20T09:07:05.631Z,-2.15
2018-02-20T09:08:15.126Z,-2.18
2018-02-20T09:09:25.124Z,-2.1
2018-02-20T09:10:34.847Z,-2.02
2018-02-20T09:11:44.838Z,-1.93
2018-02-20T09:12:54.713Z,-2.04
2018-02-20T09:14:04.758Z,-1.99
2018-02-20T09:15:14.486Z,-1.87
2018-02-20T09:16:24.478Z,-1.82
2018-02-20T09:17:34.466Z,-1.74
2018-02-20T09:18:44.311Z,-1.75
2018-02-20T09:19:54.054Z,-1.76
2018-02-20T09:21:04.051Z,-1.63
2018-02-20T09:22:14.040Z,-1.5
2018-02-20T09:23:23.765Z,-1.48
2018-02-20T09:24:33.276Z,-1.43
2018-02-20T09:25:43.279Z,-1.4
2018-02-20T09:26:53.005Z,-1.38
2018-02-20T09:28:03.041Z,-1.35
2018-02-20T09:29:13.055Z,-1.22
2018-02-20T09:30:23.047Z,-1.17
2018-02-20T09:31:33.049Z,-1.07
2018-02-20T09:32:42.785Z,-1.03
2018-02-20T09:33:52.778Z,-1.03
2018-02-20T09:35:02.774Z,-0.96
2018-02-20T09:36:12.501Z,-1
2018-02-20T09:37:22.233Z,-0.84
2018-02-20T09:38:31.955Z,-0.82
2018-02-20T09:39:41.682Z,-0.78
2018-02-20T09:40:51.154Z,-0.87
2018-02-20T09:42:00.890Z,-0.91
2018-02-20T09:43:10.879Z,-0.94
2018-02-20T09:44:20.607Z,-1.03
2018-02-20T09:45:30.071Z,-0.94
2018-02-20T09:46:39.798Z,-1.06
2018-02-20T09:47:49.566Z,-1.06
2018-02-20T09:48:59.557Z,-1.11
2018-02-20T09:50:09.289Z,-1.14
2018-02-20T09:51:18.907Z,-1.15
2018-02-20T09:52:28.636Z,-1.24
2018-02-20T09:53:39.362Z,-1.29
2018-02-20T09:54:49.097Z,-1.33
2018-02-20T09:55:58.822Z,-1.21
2018-02-20T09:57:08.548Z,-1.19
2018-02-20T09:58:18.269Z,-1.07
2018-02-20T09:59:28.268Z,-0.93
2018-02-20T10:00:38.266Z,-0.94
2018-02-20T10:01:47.727Z,-0.87
2018-02-20T10:02:57.718Z,-0.77
2018-02-20T10:04:07.441Z,-0.77
2018-02-20T10:05:17.169Z,-0.66
2018-02-20T10:06:26.898Z,-0.67
2018-02-20T10:07:36.903Z,-0.69
2018-02-20T10:08:46.898Z,-0.63
2018-02-20T10:09:56.889Z,-0.69
2018-02-20T10:11:06.942Z,-0.62
2018-02-20T10:12:16.671Z,-0.57
2018-02-20T10:13:26.668Z,-0.59
2018-02-20T10:14:36.660Z,-0.57
2018-02-20T10:15:46.658Z,-0.57
2018-02-20T10:16:56.383Z,-0.54
2018-02-20T10:18:06.384Z,-0.64
2018-02-20T10:19:16.116Z,-0.63
2018-02-20T10:20:25.840Z,-0.69
2018-02-20T10:21:35.585Z,-0.77
2018-02-20T10:22:45.632Z,-0.85
2018-02-20T10:23:55.623Z,-0.84
2018-02-20T10:25:04.823Z,-1
2018-02-20T10:26:14.825Z,-1.03
2018-02-20T10:27:24.821Z,-1.21
2018-02-20T10:28:34.821Z,-1.29
2018-02-20T10:29:44.550Z,-1.33
2018-02-20T10:30:54.278Z,-1.21
2018-02-20T10:32:04.290Z,-1.14
2018-02-20T10:33:14.126Z,-1.01
2018-02-20T10:34:23.685Z,-0.96
2018-02-20T10:35:33.414Z,-0.87
2018-02-20T10:36:43.408Z,-0.75
2018-02-20T10:37:53.406Z,-0.66
2018-02-20T10:39:03.140Z,-0.56
2018-02-20T10:40:12.600Z,-0.46
2018-02-20T10:41:21.790Z,-0.48
2018-02-20T10:42:31.514Z,-0.38
2018-02-20T10:43:41.507Z,-0.33
2018-02-20T10:44:51.516Z,-0.23
2018-02-20T10:46:01.241Z,-0.15
2018-02-20T10:47:10.973Z,-0.09
2018-02-20T10:48:20.710Z,-0.12
2018-02-20T10:49:30.438Z,0
2018-02-20T10:50:40.430Z,-0.05
2018-02-20T10:51:50.429Z,0.05
2018-02-20T10:53:00.163Z,0.15
2018-02-20T10:54:09.895Z,0.15
2018-02-20T10:55:19.372Z,0.19
2018-02-20T10:56:29.099Z,0.15
2018-02-20T10:57:38.289Z,0.2
2018-02-20T10:58:48.026Z,0.3
2018-02-20T10:59:57.784Z,0.26
2018-02-20T11:01:07.246Z,0.11
2018-02-20T11:02:17.242Z,0.16
2018-02-20T11:03:26.964Z,0.18
2018-02-20T11:04:36.955Z,0.18
2018-02-20T11:05:46.413Z,0.13
2018-02-20T11:06:56.405Z,0.23
2018-02-20T11:08:06.453Z,0.31
2018-02-20T11:09:16.287Z,0.33
2018-02-20T11:10:26.011Z,0.36
2018-02-20T11:11:36.010Z,0.4
2018-02-20T11:12:45.743Z,0.39
2018-02-20T11:13:54.939Z,0.48
2018-02-20T11:15:04.678Z,0.59
2018-02-20T11:16:14.672Z,0.61
2018-02-20T11:17:24.673Z,0.67
2018-02-20T11:18:34.404Z,0.71
2018-02-20T11:19:44.404Z,0.73
2018-02-20T11:20:54.403Z,0.77
2018-02-20T11:22:04.142Z,0.7
2018-02-20T11:23:14.142Z,0.76
2018-02-20T11:24:23.869Z,0.78
2018-02-20T11:25:33.599Z,0.91
2018-02-20T11:26:43.701Z,0.82
2018-02-20T11:27:53.718Z,0.84
2018-02-20T11:29:03.460Z,0.91
2018-02-20T11:30:13.486Z,0.95
2018-02-20T11:31:23.511Z,0.91
2018-02-20T11:32:33.509Z,0.95
2018-02-20T11:33:43.510Z,1.04
2018-02-20T11:34:53.508Z,1.06
2018-02-20T11:36:02.970Z,1.09
2018-02-20T11:37:12.700Z,0.85
2018-02-20T11:38:22.704Z,0.76
2018-02-20T11:39:32.709Z,0.68
2018-02-20T11:40:42.449Z,0.63
2018-02-20T11:41:52.179Z,0.64
2018-02-20T11:43:02.181Z,0.66
2018-02-20T11:44:11.746Z,0.61
2018-02-20T11:45:21.477Z,0.61
2018-02-20T11:46:30.941Z,0.63
2018-02-20T11:47:40.412Z,0.7
2018-02-20T11:48:50.416Z,0.85
2018-02-20T11:50:00.149Z,0.86
2018-02-20T11:51:09.883Z,0.88
2018-02-20T11:52:19.616Z,1.09
2018-02-20T11:53:29.355Z,1.07
2018-02-20T11:54:39.357Z,1.16
2018-02-20T11:55:49.406Z,1.22
2018-02-20T11:56:59.431Z,1.22
2018-02-20T11:58:09.159Z,1.36
2018-02-20T11:59:18.625Z,1.49
2018-02-20T12:00:28.632Z,1.5
2018-02-20T12:01:38.685Z,1.58
2018-02-20T12:02:48.467Z,1.67
2018-02-20T12:03:58.464Z,1.71
2018-02-20T12:05:08.204Z,1.85
2018-02-20T12:06:18.201Z,1.86
2018-02-20T12:07:27.931Z,1.86
2018-02-20T12:08:37.929Z,1.95
2018-02-20T12:09:47.392Z,1.92
2018-02-20T12:10:57.397Z,1.86
2018-02-20T12:12:07.399Z,1.98
2018-02-20T12:13:17.498Z,1.98
2018-02-20T12:14:27.006Z,2
2018-02-20T12:15:36.879Z,2.04
2018-02-20T12:16:46.620Z,2.05
2018-02-20T12:17:56.214Z,2.01
2018-02-20T12:19:06.056Z,1.93
2018-02-20T12:20:15.971Z,2.04
2018-02-20T12:21:25.882Z,2
2018-02-20T12:22:35.727Z,2.01
2018-02-20T12:23:45.932Z,2.04
2018-02-20T12:24:55.988Z,2.04
2018-02-20T12:26:05.866Z,2.01
2018-02-20T12:27:16.065Z,2.05
2018-02-20T12:28:26.167Z,2.03
2018-02-20T12:29:36.324Z,2.05
2018-02-20T12:30:46.473Z,2.1
2018-02-20T12:31:56.334Z,1.98
2018-02-20T12:33:06.803Z,2.05
2018-02-20T12:34:16.689Z,2.03
2018-02-20T12:35:26.784Z,2.01
2018-02-20T12:36:36.865Z,2.03
2018-02-20T12:37:46.375Z,2.05
2018-02-20T12:38:56.380Z,2.05
2018-02-20T12:40:05.312Z,2.07
2018-02-20T12:41:15.047Z,1.98
2018-02-20T12:42:24.787Z,1.88
2018-02-20T12:43:34.256Z,2.01
2018-02-20T12:44:43.725Z,1.98
2018-02-20T12:45:53.193Z,2.01
2018-02-20T12:47:02.925Z,2
2018-02-20T12:48:12.925Z,1.95
2018-02-20T12:49:22.924Z,2.07
2018-02-20T12:50:32.956Z,1.97
2018-02-20T12:51:42.700Z,2.04
2018-02-20T12:52:52.709Z,2.03
2018-02-20T12:54:02.455Z,1.97
2018-02-20T12:55:12.467Z,1.97
2018-02-20T12:56:22.484Z,1.92
2018-02-20T12:57:32.482Z,1.84
2018-02-20T12:58:42.212Z,1.76
2018-02-20T12:59:52.214Z,1.68
2018-02-20T13:01:01.966Z,1.58
2018-02-20T13:02:12.029Z,1.53
2018-02-20T13:03:22.073Z,1.43
2018-02-20T13:04:32.070Z,1.39
2018-02-20T13:05:42.122Z,1.32
2018-02-20T13:06:52.121Z,1.22
2018-02-20T13:08:02.114Z,1.28
2018-02-20T13:09:12.111Z,1.28
2018-02-20T13:10:22.116Z,1.25
2018-02-20T13:11:32.312Z,1.24
2018-02-20T13:12:42.306Z,1.18
2018-02-20T13:13:52.042Z,1.2
2018-02-20T13:15:02.043Z,1.13
2018-02-20T13:16:12.060Z,1.03
2018-02-20T13:17:21.788Z,0.92
2018-02-20T13:18:31.783Z,0.84
2018-02-20T13:19:41.779Z,0.78
2018-02-20T13:20:51.776Z,0.81
2018-02-20T13:22:01.559Z,0.76
2018-02-20T13:23:11.773Z,0.78
2018-02-20T13:24:21.586Z,0.77
2018-02-20T13:25:31.102Z,0.77
2018-02-20T13:26:41.100Z,0.74
2018-02-20T13:27:51.102Z,0.73
2018-02-20T13:29:01.107Z,0.74
2018-02-20T13:30:11.111Z,0.81
2018-02-20T13:31:20.839Z,0.67
2018-02-20T13:32:30.042Z,0.68
2018-02-20T13:33:40.047Z,0.56
2018-02-20T13:34:50.072Z,0.64
2018-02-20T13:36:00.072Z,0.51
2018-02-20T13:37:09.805Z,0.61
2018-02-20T13:38:19.535Z,0.63
2018-02-20T13:39:29.263Z,0.61
2018-02-20T13:40:39.267Z,0.71
2018-02-20T13:41:49.269Z,0.64
2018-02-20T13:42:58.733Z,0.64
2018-02-20T13:44:08.463Z,0.76
2018-02-20T13:45:18.200Z,0.77
2018-02-20T13:46:27.663Z,0.74
2018-02-20T13:47:37.390Z,0.81
2018-02-20T13:48:47.112Z,0.77
2018-02-20T13:49:57.115Z,0.78
2018-02-20T13:51:06.846Z,0.76
2018-02-20T13:52:16.581Z,0.56
2018-02-20T13:53:26.594Z,0.45
2018-02-20T13:54:36.587Z,0.48
2018-02-20T13:55:46.356Z,0.3
2018-02-20T13:56:56.434Z,0.09
2018-02-20T13:58:05.896Z,0.05
2018-02-20T13:59:15.892Z,0.11
2018-02-20T14:00:25.884Z,0.15
2018-02-20T14:01:35.883Z,0.09
2018-02-20T14:02:45.616Z,0.11
2018-02-20T14:03:55.720Z,0.02
2018-02-20T14:05:05.185Z,-0.03
2018-02-20T14:06:14.921Z,0.12
2018-02-20T14:07:24.920Z,0.01
2018-02-20T14:08:34.647Z,0.11
2018-02-20T14:09:44.651Z,-0.06
2018-02-20T14:10:54.379Z,-0.09
2018-02-20T14:12:04.117Z,-0.09
2018-02-20T14:13:13.847Z,0.01
2018-02-20T14:14:23.848Z,0.09
2018-02-20T14:15:33.687Z,-0.02
2018-02-20T14:16:43.690Z,0.05
2018-02-20T14:17:53.731Z,0.02
2018-02-20T14:19:03.734Z,0.12
2018-02-20T14:20:13.791Z,0.05
2018-02-20T14:21:23.351Z,0.01
2018-02-20T14:22:33.352Z,0.01
2018-02-20T14:23:43.395Z,0.09
2018-02-20T14:24:53.394Z,0.06
2018-02-20T14:26:03.394Z,0.16
2018-02-20T14:27:13.127Z,0.02
2018-02-20T14:28:23.124Z,0.08
2018-02-20T14:29:32.852Z,0.09
2018-02-20T14:30:42.583Z,0.06
2018-02-20T14:31:52.324Z,0
2018-02-20T14:33:02.429Z,0.05
2018-02-20T14:34:12.273Z,-0.02
2018-02-20T14:35:22.003Z,-0.02
2018-02-20T14:36:31.478Z,0.12
2018-02-20T14:37:41.474Z,-0.02
2018-02-20T14:38:51.473Z,0.13
2018-02-20T14:40:01.193Z,-0.02
2018-02-20T14:41:10.921Z,-0.03
2018-02-20T14:42:20.651Z,-0.1
2018-02-20T14:43:30.663Z,-0.06
2018-02-20T14:44:40.655Z,-0.06
2018-02-20T14:45:50.647Z,-0.05
2018-02-20T14:47:00.640Z,0.05
2018-02-20T14:48:10.370Z,-0.03
2018-02-20T14:49:20.132Z,-0.09
2018-02-20T14:50:30.134Z,-0.02
2018-02-20T14:51:39.601Z,0
2018-02-20T14:52:49.334Z,-0.05
2018-02-20T14:53:59.063Z,-0.06
2018-02-20T14:55:08.790Z,-0.06
2018-02-20T14:56:18.520Z,-0.09
2018-02-20T14:57:28.512Z,-0.17
2018-02-20T14:58:38.511Z,-0.3
2018-02-20T14:59:48.508Z,-0.28
2018-02-20T15:00:58.550Z,-0.27
2018-02-20T15:02:08.380Z,-0.26
2018-02-20T15:03:18.429Z,-0.41
2018-02-20T15:04:28.424Z,-0.45
2018-02-20T15:05:38.418Z,-0.49
2018-02-20T15:06:48.160Z,-0.49
2018-02-20T15:07:58.153Z,-0.56
2018-02-20T15:09:07.880Z,-0.59
2018-02-20T15:10:17.613Z,-0.59
2018-02-20T15:11:27.606Z,-0.62
2018-02-20T15:12:37.063Z,-0.62
2018-02-20T15:13:47.055Z,-0.56